createdAt,value
2023-05-06T00:01:48.836Z,14.3
2023-05-06T00:06:55.034Z,14.3
2023-05-06T00:12:01.250Z,14.3
2023-05-06T00:17:07.476Z,14.3
2023-05-06T00:22:13.679Z,14.3
2023-05-06T00:27:19.896Z,14.3
2023-05-06T00:32:26.154Z,14.3
2023-05-06T00:37:31.369Z,14.3
2023-05-06T00:42:37.572Z,14.3
2023-05-06T00:47:43.805Z,14.3
2023-05-06T00:52:49.036Z,14.2
2023-05-06T00:57:55.269Z,14.2
2023-05-06T01:03:01.592Z,14.1
2023-05-06T01:08:07.718Z,14.1
2023-05-06T01:13:14.025Z,14.0
2023-05-06T01:18:20.129Z,14.0
2023-05-06T01:23:26.325Z,13.9
2023-05-06T01:28:32.543Z,13.9
2023-05-06T01:33:38.742Z,13.9
2023-05-06T01:38:44.965Z,13.8
2023-05-06T01:43:51.165Z,13.8
2023-05-06T01:48:57.375Z,13.8
2023-05-06T01:54:03.594Z,13.8
2023-05-06T01:59:09.804Z,13.7
2023-05-06T02:04:16.064Z,13.6
2023-05-06T02:09:22.222Z,13.6
2023-05-06T02:14:28.429Z,13.5
2023-05-06T02:19:34.654Z,13.5
2023-05-06T02:24:40.851Z,13.4
2023-05-06T02:29:47.062Z,13.4
2023-05-06T02:34:53.274Z,13.3
2023-05-06T02:39:58.495Z,13.3
2023-05-06T02:45:04.723Z,13.2
2023-05-06T02:50:10.933Z,13.1
2023-05-06T02:55:17.136Z,13.1
2023-05-06T03:05:29.556Z,12.9
2023-05-06T03:10:35.753Z,12.9
2023-05-06T03:15:41.972Z,12.8
2023-05-06T03:20:48.176Z,12.7
2023-05-06T03:25:54.651Z,12.7
2023-05-06T03:31:00.582Z,12.6
2023-05-06T03:36:06.798Z,12.6
2023-05-06T03:41:12.997Z,12.5
2023-05-06T03:46:19.250Z,12.5
2023-05-06T03:51:25.431Z,12.5
2023-05-06T03:56:31.631Z,12.4
2023-05-06T04:01:37.838Z,12.4
2023-05-06T04:06:44.044Z,12.3
2023-05-06T04:11:50.245Z,12.3
2023-05-06T04:16:56.451Z,12.2
2023-05-06T04:22:02.681Z,12.2
2023-05-06T04:27:08.869Z,12.1
2023-05-06T04:32:14.122Z,12.0
2023-05-06T04:37:20.312Z,12.0
2023-05-06T04:42:25.548Z,12.0
2023-05-06T04:47:31.826Z,12.0
2023-05-06T04:52:37.015Z,12.0
2023-05-06T04:57:43.212Z,12.0
2023-05-06T05:02:49.598Z,12.0
2023-05-06T05:07:55.628Z,12.0
2023-05-06T05:13:01.890Z,12.0
2023-05-06T05:18:08.115Z,12.1
2023-05-06T05:23:14.245Z,12.2
2023-05-06T05:28:20.452Z,12.3
2023-05-06T05:33:26.722Z,12.5
2023-05-06T05:38:32.871Z,12.7
2023-05-06T05:43:39.082Z,12.9
2023-05-06T05:48:45.292Z,13.1
2023-05-06T05:53:51.513Z,13.3
2023-05-06T05:58:57.723Z,13.5
2023-05-06T06:04:04.095Z,13.6
2023-05-06T06:09:10.133Z,13.8
2023-05-06T06:14:15.375Z,14.0
2023-05-06T06:19:21.568Z,14.2
2023-05-06T06:24:27.802Z,14.4
2023-05-06T06:29:34.005Z,14.6
2023-05-06T06:34:40.212Z,14.8
2023-05-06T06:39:45.469Z,15.1
2023-05-06T06:44:51.669Z,15.3
2023-05-06T06:49:57.871Z,15.6
2023-05-06T06:55:03.106Z,15.9
2023-05-06T07:00:09.328Z,16.1
2023-05-06T07:05:15.528Z,16.3
2023-05-06T07:10:21.733Z,16.5
2023-05-06T07:15:27.936Z,16.8
2023-05-06T07:20:34.144Z,17.1
2023-05-06T07:25:40.350Z,17.4
2023-05-06T07:30:46.591Z,17.7
2023-05-06T07:35:52.774Z,18.1
2023-05-06T07:40:58.982Z,18.3
2023-05-06T07:46:05.276Z,18.6
2023-05-06T07:51:11.396Z,18.9
2023-05-06T07:56:17.605Z,19.2
2023-05-06T08:01:23.811Z,19.5
2023-05-06T08:06:30.015Z,19.7
2023-05-06T08:11:36.240Z,19.9
2023-05-06T08:16:42.590Z,20.0
2023-05-06T08:21:48.648Z,20.3
2023-05-06T08:26:54.863Z,20.5
2023-05-06T08:32:01.145Z,20.8
2023-05-06T08:37:07.281Z,21.0
2023-05-06T08:47:18.730Z,21.3
2023-05-06T08:52:23.957Z,21.4
2023-05-06T08:57:30.181Z,21.6
2023-05-06T09:02:36.511Z,21.7
2023-05-06T09:07:41.651Z,22.0
2023-05-06T09:12:47.842Z,22.1
2023-05-06T09:17:54.103Z,22.2
2023-05-06T09:23:00.260Z,22.3
2023-05-06T09:28:06.469Z,22.4
2023-05-06T09:33:12.738Z,22.5
2023-05-06T09:38:18.871Z,22.6
2023-05-06T09:43:25.085Z,22.7
2023-05-06T09:48:31.291Z,22.9
2023-05-06T09:53:37.522Z,23.0
2023-05-06T09:58:43.711Z,23.1
2023-05-06T10:03:50.069Z,23.2
2023-05-06T10:08:56.135Z,23.2
2023-05-06T10:14:02.328Z,23.2
2023-05-06T10:19:08.543Z,23.3
2023-05-06T10:24:14.763Z,23.4
2023-05-06T10:29:20.961Z,23.6
2023-05-06T10:34:27.179Z,23.8
2023-05-06T10:39:33.411Z,24.0
2023-05-06T10:44:39.581Z,24.1
2023-05-06T10:49:45.790Z,24.3
2023-05-06T10:54:51.154Z,24.3
2023-05-06T10:59:57.234Z,24.3
2023-05-06T11:05:03.458Z,24.2
2023-05-06T11:10:08.686Z,24.2
2023-05-06T11:15:14.890Z,24.3
2023-05-06T11:20:21.114Z,24.5
2023-05-06T11:25:27.309Z,24.6
2023-05-06T11:30:33.528Z,24.5
2023-05-06T11:35:39.726Z,24.5
2023-05-06T11:40:45.934Z,24.4
2023-05-06T11:45:52.252Z,24.3
2023-05-06T11:50:58.396Z,24.3
2023-05-06T11:56:04.570Z,24.3
2023-05-06T12:01:10.820Z,24.3
2023-05-06T12:06:17.013Z,24.4
2023-05-06T12:11:23.198Z,24.5
2023-05-06T12:16:29.421Z,24.6
2023-05-06T12:21:35.607Z,24.7
2023-05-06T12:26:41.816Z,24.7
2023-05-06T12:31:48.126Z,24.7
2023-05-06T12:36:54.245Z,24.8
2023-05-06T12:42:00.458Z,24.9
2023-05-06T12:47:06.669Z,25.0
2023-05-06T12:52:12.880Z,25.1
2023-05-06T12:57:18.113Z,25.2
2023-05-06T13:02:24.432Z,25.3
2023-05-06T13:07:29.571Z,25.4
2023-05-06T13:12:35.795Z,25.4
2023-05-06T13:17:42.026Z,25.5
2023-05-06T13:22:54.369Z,25.6
2023-05-06T13:27:54.434Z,25.7
2023-05-06T13:33:00.728Z,25.8
2023-05-06T13:38:06.849Z,25.8
2023-05-06T13:43:13.066Z,25.9
2023-05-06T13:48:19.287Z,25.9
2023-05-06T13:53:25.508Z,25.9
2023-05-06T13:58:31.711Z,25.9
2023-05-06T14:03:37.937Z,25.9
2023-05-06T14:08:44.142Z,25.9
2023-05-06T14:13:50.369Z,26.0
2023-05-06T14:18:56.568Z,25.9
2023-05-06T14:24:02.806Z,25.8
2023-05-06T14:29:09.024Z,25.8
2023-05-06T14:34:15.211Z,25.9
2023-05-06T14:39:21.436Z,26.0
2023-05-06T14:44:27.650Z,26.0
2023-05-06T14:49:33.856Z,26.0
2023-05-06T14:54:39.110Z,26.0
2023-05-06T14:59:45.320Z,26.0
2023-05-06T15:04:51.542Z,26.0
2023-05-06T15:09:56.789Z,26.0
2023-05-06T15:15:03.002Z,26.0
2023-05-06T15:20:09.226Z,25.9
2023-05-06T15:25:26.547Z,25.8
2023-05-06T15:30:21.652Z,25.6
2023-05-06T15:35:27.866Z,25.4
2023-05-06T15:40:34.116Z,25.2
2023-05-06T15:45:40.339Z,25.2
2023-05-06T15:50:46.488Z,25.1
2023-05-06T16:00:58.932Z,25.0
2023-05-06T16:06:05.132Z,24.9
2023-05-06T16:11:11.338Z,24.8
2023-05-06T16:16:17.572Z,24.7
2023-05-06T16:21:23.767Z,24.6
2023-05-06T16:26:29.981Z,24.4
2023-05-06T16:31:36.233Z,24.1
2023-05-06T16:36:42.390Z,23.7
2023-05-06T16:41:48.621Z,23.3
2023-05-06T16:46:54.900Z,22.8
2023-05-06T16:52:01.359Z,22.5
2023-05-06T16:57:07.276Z,22.1
2023-05-06T17:02:12.523Z,21.7
2023-05-06T17:07:18.734Z,21.4
2023-05-06T17:12:25.272Z,21.0
2023-05-06T17:17:30.273Z,20.8
2023-05-06T17:22:36.385Z,20.6
2023-05-06T17:27:42.533Z,20.3
2023-05-06T17:32:48.778Z,20.2
2023-05-06T17:37:54.962Z,20.1
2023-05-06T17:43:01.157Z,20.0
2023-05-06T17:48:07.434Z,19.8
2023-05-06T17:53:13.579Z,19.7
2023-05-06T17:58:19.797Z,19.6
2023-05-06T18:03:26.114Z,19.5
2023-05-06T18:08:32.209Z,19.4
2023-05-06T18:13:38.448Z,19.3
2023-05-06T18:18:44.634Z,19.2
2023-05-06T18:23:51.670Z,19.1
2023-05-06T18:28:57.049Z,19.1
2023-05-06T18:34:03.252Z,19.0
2023-05-06T18:39:09.449Z,19.0
2023-05-06T18:44:15.679Z,18.9
2023-05-06T18:49:21.873Z,18.9
2023-05-06T18:54:28.169Z,18.9
2023-05-06T19:04:40.504Z,18.8
2023-05-06T19:09:45.723Z,18.8
2023-05-06T19:14:51.939Z,18.8
2023-05-06T19:19:57.185Z,18.7
2023-05-06T19:25:03.378Z,18.7
2023-05-06T19:30:09.603Z,18.7
2023-05-06T19:35:15.801Z,18.7
2023-05-06T19:40:22.037Z,18.7
2023-05-06T19:45:28.232Z,18.6
2023-05-06T19:50:34.436Z,18.6
2023-05-06T19:55:40.632Z,18.6
2023-05-06T20:00:46.841Z,18.5
2023-05-06T20:05:53.050Z,18.5
2023-05-06T20:10:59.306Z,18.4
2023-05-06T20:16:05.525Z,18.4
2023-05-06T20:21:11.673Z,18.4
2023-05-06T20:31:24.138Z,18.3
2023-05-06T20:36:30.300Z,18.3
2023-05-06T20:41:36.527Z,18.3
2023-05-06T20:46:42.732Z,18.3
2023-05-06T20:51:48.947Z,18.3
2023-05-06T20:56:55.135Z,18.2
2023-05-06T21:02:01.401Z,18.2
2023-05-06T21:07:07.563Z,18.2
2023-05-06T21:12:12.799Z,18.2
2023-05-06T21:17:19.016Z,18.1
2023-05-06T21:22:24.233Z,18.1
2023-05-06T21:27:30.429Z,18.1
2023-05-06T21:32:36.687Z,18.1
2023-05-06T21:37:42.872Z,18.1
2023-05-06T21:42:49.078Z,18.1
2023-05-06T21:47:55.317Z,18.0
2023-05-06T21:53:01.472Z,18.0
2023-05-06T21:58:07.693Z,18.0
2023-05-06T22:03:13.972Z,18.0
2023-05-06T22:08:20.106Z,17.9
2023-05-06T22:13:26.402Z,17.9
2023-05-06T22:18:32.567Z,17.8
2023-05-06T22:23:38.766Z,17.8
2023-05-06T22:28:44.941Z,17.8
2023-05-06T22:33:51.152Z,17.7
2023-05-06T22:38:57.356Z,17.7
2023-05-06T22:44:03.552Z,17.7
2023-05-06T22:49:09.840Z,17.6
2023-05-06T22:54:15.977Z,17.6
2023-05-06T22:59:22.182Z,17.6
2023-05-06T23:04:28.386Z,17.6
2023-05-06T23:09:33.621Z,17.6
2023-05-06T23:14:39.839Z,17.5
2023-05-06T23:19:46.023Z,17.5
2023-05-06T23:24:51.291Z,17.4
2023-05-06T23:29:57.493Z,17.4
2023-05-06T23:35:03.724Z,17.4
2023-05-06T23:40:09.910Z,17.3
2023-05-06T23:50:22.342Z,17.2
2023-05-06T23:55:28.537Z,17.2
